Cid, North Carolina
Current Conditions -  °F | °C
As of 11:35 PM on Sunday 25 Jan 2015 (Local Time) from KEXX Reporting Station
Overcast Overcast  
Wind Chill: 43°   Ceiling: 7000
Heat Index: 46°   Visibility: 10mi
Dew Point: 34°   Wind: 5mph
Humidity: 64%   Direction: 150°SSE
Pressure: 29.75"   Gusts: NA
Location:  35.7974°N, 80.2541°W
Report Text: KEXX 260435Z AUTO 15004KT 10SM SCT060 BKN070 OVC100 08/01 A2975 RMK AO2 T00760011
Loading
Personal Weather Stations






























Interactive Weather Map New forecast layout! Learn more

10-Day Weather Forecast

Advertisements
Track Severe Weather on mobile